sensor_id;sensor_type;location;lat;lon;timestamp;P1;durP1;ratioP1;P2;durP2;ratioP2
35891;SDS011;21993;42.672;23.296;2023-02-24T00:00:57;14.10;;;8.40;;
35891;SDS011;21993;42.672;23.296;2023-02-24T00:03:26;14.40;;;8.10;;
35891;SDS011;21993;42.672;23.296;2023-02-24T00:05:52;13.87;;;8.00;;
35891;SDS011;21993;42.672;23.296;2023-02-24T00:08:17;15.27;;;7.77;;
35891;SDS011;21993;42.672;23.296;2023-02-24T00:10:42;13.30;;;7.73;;
35891;SDS011;21993;42.672;23.296;2023-02-24T00:13:08;13.13;;;7.43;;
35891;SDS011;21993;42.672;23.296;2023-02-24T00:15:35;17.57;;;8.33;;
35891;SDS011;21993;42.672;23.296;2023-02-24T00:18:01;14.40;;;8.10;;
35891;SDS011;21993;42.672;23.296;2023-02-24T00:20:31;13.67;;;7.83;;
35891;SDS011;21993;42.672;23.296;2023-02-24T00:22:57;16.17;;;8.43;;
35891;SDS011;21993;42.672;23.296;2023-02-24T00:25:24;13.07;;;8.10;;
35891;SDS011;21993;42.672;23.296;2023-02-24T00:27:49;14.70;;;7.90;;
35891;SDS011;21993;42.672;23.296;2023-02-24T00:30:17;11.60;;;8.10;;
35891;SDS011;21993;42.672;23.296;2023-02-24T00:32:45;13.03;;;8.40;;
35891;SDS011;21993;42.672;23.296;2023-02-24T00:35:10;15.47;;;7.47;;
35891;SDS011;21993;42.672;23.296;2023-02-24T00:37:36;12.43;;;7.70;;
35891;SDS011;21993;42.672;23.296;2023-02-24T00:40:01;11.30;;;7.77;;
35891;SDS011;21993;42.672;23.296;2023-02-24T00:42:34;11.67;;;7.60;;
35891;SDS011;21993;42.672;23.296;2023-02-24T00:45:00;12.90;;;7.47;;
35891;SDS011;21993;42.672;23.296;2023-02-24T00:47:31;10.17;;;7.20;;
35891;SDS011;21993;42.672;23.296;2023-02-24T00:50:03;10.90;;;7.17;;
35891;SDS011;21993;42.672;23.296;2023-02-24T00:52:29;13.17;;;7.73;;
35891;SDS011;21993;42.672;23.296;2023-02-24T00:54:54;13.93;;;8.43;;
35891;SDS011;21993;42.672;23.296;2023-02-24T00:57:20;12.80;;;8.53;;
35891;SDS011;21993;42.672;23.296;2023-02-24T00:59:46;12.13;;;7.63;;
35891;SDS011;21993;42.672;23.296;2023-02-24T01:02:11;12.53;;;7.77;;
35891;SDS011;21993;42.672;23.296;2023-02-24T01:04:38;12.47;;;7.87;;
35891;SDS011;21993;42.672;23.296;2023-02-24T01:07:03;11.87;;;7.57;;
35891;SDS011;21993;42.672;23.296;2023-02-24T01:09:34;10.67;;;7.30;;
35891;SDS011;21993;42.672;23.296;2023-02-24T01:12:00;9.00;;;7.40;;
35891;SDS011;21993;42.672;23.296;2023-02-24T01:14:46;10.70;;;7.70;;
35891;SDS011;21993;42.672;23.296;2023-02-24T01:17:14;10.23;;;7.10;;
35891;SDS011;21993;42.672;23.296;2023-02-24T01:19:40;14.73;;;7.47;;
35891;SDS011;21993;42.672;23.296;2023-02-24T01:22:08;14.23;;;7.67;;
35891;SDS011;21993;42.672;23.296;2023-02-24T01:24:37;11.90;;;8.13;;
35891;SDS011;21993;42.672;23.296;2023-02-24T01:27:05;11.27;;;7.50;;
35891;SDS011;21993;42.672;23.296;2023-02-24T01:29:31;11.73;;;7.80;;
35891;SDS011;21993;42.672;23.296;2023-02-24T01:31:57;14.03;;;7.83;;
35891;SDS011;21993;42.672;23.296;2023-02-24T01:34:25;15.50;;;7.87;;
35891;SDS011;21993;42.672;23.296;2023-02-24T01:36:52;12.70;;;7.40;;
35891;SDS011;21993;42.672;23.296;2023-02-24T01:39:17;13.10;;;8.10;;
35891;SDS011;21993;42.672;23.296;2023-02-24T01:41:44;11.30;;;8.03;;
35891;SDS011;21993;42.672;23.296;2023-02-24T01:46:38;13.63;;;7.40;;
35891;SDS011;21993;42.672;23.296;2023-02-24T01:49:07;10.53;;;6.60;;
35891;SDS011;21993;42.672;23.296;2023-02-24T01:51:56;11.40;;;6.90;;
35891;SDS011;21993;42.672;23.296;2023-02-24T01:54:24;11.67;;;7.37;;
35891;SDS011;21993;42.672;23.296;2023-02-24T01:56:52;15.63;;;7.17;;
35891;SDS011;21993;42.672;23.296;2023-02-24T01:59:19;11.70;;;7.87;;
35891;SDS011;21993;42.672;23.296;2023-02-24T02:01:48;12.87;;;7.20;;
35891;SDS011;21993;42.672;23.296;2023-02-24T02:04:19;12.80;;;7.33;;
35891;SDS011;21993;42.672;23.296;2023-02-24T02:06:55;11.83;;;7.53;;
35891;SDS011;21993;42.672;23.296;2023-02-24T02:09:22;12.67;;;7.20;;
35891;SDS011;21993;42.672;23.296;2023-02-24T02:11:47;12.67;;;7.50;;
35891;SDS011;21993;42.672;23.296;2023-02-24T02:14:17;9.87;;;7.43;;
35891;SDS011;21993;42.672;23.296;2023-02-24T02:16:47;14.20;;;7.63;;
35891;SDS011;21993;42.672;23.296;2023-02-24T02:20:06;8.70;;;6.73;;
35891;SDS011;21993;42.672;23.296;2023-02-24T02:33:57;9.20;;;6.60;;
35891;SDS011;21993;42.672;23.296;2023-02-24T02:39:21;10.07;;;6.57;;
35891;SDS011;21993;42.672;23.296;2023-02-24T02:41:54;10.33;;;6.50;;
35891;SDS011;21993;42.672;23.296;2023-02-24T02:44:25;10.77;;;6.90;;
35891;SDS011;21993;42.672;23.296;2023-02-24T02:47:03;12.17;;;7.20;;
35891;SDS011;21993;42.672;23.296;2023-02-24T02:49:38;10.37;;;6.93;;
35891;SDS011;21993;42.672;23.296;2023-02-24T02:52:11;12.47;;;6.17;;
35891;SDS011;21993;42.672;23.296;2023-02-24T02:54:48;10.37;;;6.23;;
35891;SDS011;21993;42.672;23.296;2023-02-24T02:57:25;10.93;;;6.10;;
35891;SDS011;21993;42.672;23.296;2023-02-24T03:02:35;8.77;;;5.40;;
35891;SDS011;21993;42.672;23.296;2023-02-24T03:05:05;7.97;;;6.20;;
35891;SDS011;21993;42.672;23.296;2023-02-24T03:07:35;8.00;;;5.80;;
35891;SDS011;21993;42.672;23.296;2023-02-24T03:10:10;8.83;;;6.23;;
35891;SDS011;21993;42.672;23.296;2023-02-24T03:12:45;11.73;;;5.80;;
35891;SDS011;21993;42.672;23.296;2023-02-24T03:15:15;11.67;;;5.93;;
35891;SDS011;21993;42.672;23.296;2023-02-24T03:17:45;7.83;;;5.53;;
35891;SDS011;21993;42.672;23.296;2023-02-24T03:20:17;11.70;;;7.10;;
35891;SDS011;21993;42.672;23.296;2023-02-24T03:23:32;11.37;;;7.00;;
35891;SDS011;21993;42.672;23.296;2023-02-24T03:25:54;13.40;;;6.83;;
35891;SDS011;21993;42.672;23.296;2023-02-24T03:28:47;12.53;;;6.67;;
35891;SDS011;21993;42.672;23.296;2023-02-24T03:31:25;10.83;;;6.20;;
35891;SDS011;21993;42.672;23.296;2023-02-24T03:34:05;10.03;;;6.47;;
35891;SDS011;21993;42.672;23.296;2023-02-24T03:36:38;10.77;;;6.27;;
35891;SDS011;21993;42.672;23.296;2023-02-24T03:39:04;13.17;;;6.83;;
35891;SDS011;21993;42.672;23.296;2023-02-24T03:41:37;13.17;;;6.63;;
35891;SDS011;21993;42.672;23.296;2023-02-24T03:44:07;14.53;;;7.43;;
35891;SDS011;21993;42.672;23.296;2023-02-24T03:46:35;13.77;;;7.27;;
35891;SDS011;21993;42.672;23.296;2023-02-24T03:49:04;11.50;;;6.50;;
35891;SDS011;21993;42.672;23.296;2023-02-24T03:51:37;12.73;;;7.33;;
35891;SDS011;21993;42.672;23.296;2023-02-24T03:59:33;8.37;;;5.50;;
35891;SDS011;21993;42.672;23.296;2023-02-24T04:02:24;9.67;;;5.57;;
35891;SDS011;21993;42.672;23.296;2023-02-24T04:05:00;10.53;;;5.60;;
35891;SDS011;21993;42.672;23.296;2023-02-24T04:07:45;9.83;;;5.17;;
35891;SDS011;21993;42.672;23.296;2023-02-24T04:10:22;12.37;;;6.80;;
35891;SDS011;21993;42.672;23.296;2023-02-24T04:13:00;11.97;;;7.23;;
35891;SDS011;21993;42.672;23.296;2023-02-24T04:15:38;10.93;;;6.97;;
35891;SDS011;21993;42.672;23.296;2023-02-24T04:18:27;10.20;;;5.80;;
35891;SDS011;21993;42.672;23.296;2023-02-24T04:20:55;11.33;;;6.57;;
35891;SDS011;21993;42.672;23.296;2023-02-24T04:23:24;9.97;;;5.33;;
35891;SDS011;21993;42.672;23.296;2023-02-24T04:25:54;10.13;;;5.83;;
35891;SDS011;21993;42.672;23.296;2023-02-24T04:28:23;11.07;;;5.53;;
35891;SDS011;21993;42.672;23.296;2023-02-24T04:30:50;11.77;;;6.20;;
35891;SDS011;21993;42.672;23.296;2023-02-24T04:33:19;10.03;;;5.13;;
35891;SDS011;21993;42.672;23.296;2023-02-24T04:35:45;8.87;;;4.90;;
35891;SDS011;21993;42.672;23.296;2023-02-24T04:38:14;7.80;;;4.40;;
35891;SDS011;21993;42.672;23.296;2023-02-24T04:40:40;10.93;;;4.90;;
35891;SDS011;21993;42.672;23.296;2023-02-24T04:43:06;12.00;;;5.60;;
35891;SDS011;21993;42.672;23.296;2023-02-24T04:45:32;9.17;;;5.23;;
35891;SDS011;21993;42.672;23.296;2023-02-24T04:47:59;7.03;;;4.40;;
35891;SDS011;21993;42.672;23.296;2023-02-24T04:50:30;9.33;;;4.77;;
35891;SDS011;21993;42.672;23.296;2023-02-24T04:53:01;5.00;;;3.67;;
35891;SDS011;21993;42.672;23.296;2023-02-24T04:55:32;7.40;;;4.50;;
35891;SDS011;21993;42.672;23.296;2023-02-24T04:58:10;7.43;;;5.03;;
35891;SDS011;21993;42.672;23.296;2023-02-24T05:00:36;10.43;;;5.37;;
35891;SDS011;21993;42.672;23.296;2023-02-24T05:03:05;8.30;;;5.20;;
35891;SDS011;21993;42.672;23.296;2023-02-24T05:05:31;6.77;;;4.77;;
35891;SDS011;21993;42.672;23.296;2023-02-24T05:07:58;7.83;;;5.50;;
35891;SDS011;21993;42.672;23.296;2023-02-24T05:10:38;8.47;;;4.97;;
35891;SDS011;21993;42.672;23.296;2023-02-24T05:13:06;7.03;;;4.47;;
35891;SDS011;21993;42.672;23.296;2023-02-24T05:15:33;5.80;;;4.30;;
35891;SDS011;21993;42.672;23.296;2023-02-24T05:18:03;13.67;;;6.87;;
35891;SDS011;21993;42.672;23.296;2023-02-24T05:20:34;20.93;;;8.70;;
35891;SDS011;21993;42.672;23.296;2023-02-24T05:23:26;12.93;;;5.60;;
35891;SDS011;21993;42.672;23.296;2023-02-24T05:25:58;6.93;;;3.97;;
35891;SDS011;21993;42.672;23.296;2023-02-24T05:28:25;5.70;;;3.53;;
35891;SDS011;21993;42.672;23.296;2023-02-24T05:30:51;5.77;;;3.53;;
35891;SDS011;21993;42.672;23.296;2023-02-24T05:33:20;5.90;;;4.17;;
35891;SDS011;21993;42.672;23.296;2023-02-24T05:35:48;5.67;;;3.67;;
35891;SDS011;21993;42.672;23.296;2023-02-24T05:38:15;5.57;;;3.80;;
35891;SDS011;21993;42.672;23.296;2023-02-24T05:40:44;6.10;;;4.10;;
35891;SDS011;21993;42.672;23.296;2023-02-24T05:43:11;12.60;;;3.77;;
35891;SDS011;21993;42.672;23.296;2023-02-24T05:45:42;7.10;;;3.87;;
35891;SDS011;21993;42.672;23.296;2023-02-24T05:48:09;4.97;;;3.53;;
35891;SDS011;21993;42.672;23.296;2023-02-24T05:50:35;4.87;;;3.80;;
35891;SDS011;21993;42.672;23.296;2023-02-24T05:53:03;7.00;;;4.23;;
35891;SDS011;21993;42.672;23.296;2023-02-24T05:55:28;8.63;;;4.70;;
35891;SDS011;21993;42.672;23.296;2023-02-24T05:57:55;5.07;;;4.27;;
35891;SDS011;21993;42.672;23.296;2023-02-24T06:00:23;5.57;;;3.87;;
35891;SDS011;21993;42.672;23.296;2023-02-24T06:02:50;7.17;;;4.20;;
35891;SDS011;21993;42.672;23.296;2023-02-24T06:05:17;6.87;;;4.37;;
35891;SDS011;21993;42.672;23.296;2023-02-24T06:07:53;5.23;;;3.63;;
35891;SDS011;21993;42.672;23.296;2023-02-24T06:10:27;6.80;;;3.80;;
35891;SDS011;21993;42.672;23.296;2023-02-24T06:12:53;10.97;;;6.70;;
35891;SDS011;21993;42.672;23.296;2023-02-24T06:15:18;9.67;;;6.10;;
35891;SDS011;21993;42.672;23.296;2023-02-24T06:17:44;11.33;;;6.43;;
35891;SDS011;21993;42.672;23.296;2023-02-24T06:20:09;9.13;;;5.33;;
35891;SDS011;21993;42.672;23.296;2023-02-24T06:22:39;8.27;;;6.00;;
35891;SDS011;21993;42.672;23.296;2023-02-24T06:25:06;12.93;;;7.00;;
35891;SDS011;21993;42.672;23.296;2023-02-24T06:27:33;11.50;;;6.23;;
35891;SDS011;21993;42.672;23.296;2023-02-24T06:30:00;10.47;;;6.47;;
35891;SDS011;21993;42.672;23.296;2023-02-24T06:32:26;9.10;;;5.23;;
35891;SDS011;21993;42.672;23.296;2023-02-24T06:34:52;9.80;;;5.57;;
35891;SDS011;21993;42.672;23.296;2023-02-24T06:37:18;10.73;;;5.20;;
35891;SDS011;21993;42.672;23.296;2023-02-24T06:39:44;8.60;;;5.80;;
35891;SDS011;21993;42.672;23.296;2023-02-24T06:42:10;10.10;;;5.90;;
35891;SDS011;21993;42.672;23.296;2023-02-24T06:44:37;7.33;;;5.40;;
35891;SDS011;21993;42.672;23.296;2023-02-24T06:47:05;11.13;;;5.77;;
35891;SDS011;21993;42.672;23.296;2023-02-24T06:49:31;8.93;;;5.73;;
35891;SDS011;21993;42.672;23.296;2023-02-24T06:51:58;12.73;;;5.93;;
35891;SDS011;21993;42.672;23.296;2023-02-24T06:54:24;11.57;;;5.73;;
35891;SDS011;21993;42.672;23.296;2023-02-24T06:56:53;7.67;;;5.67;;
35891;SDS011;21993;42.672;23.296;2023-02-24T06:59:19;10.50;;;5.63;;
35891;SDS011;21993;42.672;23.296;2023-02-24T07:01:52;11.33;;;6.40;;
35891;SDS011;21993;42.672;23.296;2023-02-24T07:04:19;9.03;;;6.07;;
35891;SDS011;21993;42.672;23.296;2023-02-24T07:06:49;8.10;;;5.67;;
35891;SDS011;21993;42.672;23.296;2023-02-24T07:09:17;10.53;;;5.90;;
35891;SDS011;21993;42.672;23.296;2023-02-24T07:11:45;11.20;;;6.57;;
35891;SDS011;21993;42.672;23.296;2023-02-24T07:14:19;9.57;;;6.47;;
35891;SDS011;21993;42.672;23.296;2023-02-24T07:16:46;11.87;;;6.43;;
35891;SDS011;21993;42.672;23.296;2023-02-24T07:19:16;13.50;;;7.53;;
35891;SDS011;21993;42.672;23.296;2023-02-24T07:21:42;9.83;;;6.90;;
35891;SDS011;21993;42.672;23.296;2023-02-24T07:24:14;12.23;;;7.13;;
35891;SDS011;21993;42.672;23.296;2023-02-24T07:26:52;13.33;;;6.70;;
35891;SDS011;21993;42.672;23.296;2023-02-24T07:29:20;9.70;;;6.23;;
35891;SDS011;21993;42.672;23.296;2023-02-24T07:31:47;9.90;;;5.67;;
35891;SDS011;21993;42.672;23.296;2023-02-24T07:34:13;11.70;;;6.03;;
35891;SDS011;21993;42.672;23.296;2023-02-24T07:36:39;12.37;;;7.47;;
35891;SDS011;21993;42.672;23.296;2023-02-24T07:39:13;10.83;;;6.70;;
35891;SDS011;21993;42.672;23.296;2023-02-24T07:41:40;13.87;;;6.70;;
35891;SDS011;21993;42.672;23.296;2023-02-24T07:44:11;11.80;;;6.33;;
35891;SDS011;21993;42.672;23.296;2023-02-24T07:46:37;11.43;;;6.50;;
35891;SDS011;21993;42.672;23.296;2023-02-24T07:49:04;11.60;;;6.67;;
35891;SDS011;21993;42.672;23.296;2023-02-24T07:51:33;12.73;;;6.87;;
35891;SDS011;21993;42.672;23.296;2023-02-24T07:53:59;8.80;;;6.10;;
35891;SDS011;21993;42.672;23.296;2023-02-24T07:56:27;10.17;;;6.40;;
35891;SDS011;21993;42.672;23.296;2023-02-24T07:59:13;13.27;;;6.50;;
35891;SDS011;21993;42.672;23.296;2023-02-24T08:01:40;11.03;;;6.20;;
35891;SDS011;21993;42.672;23.296;2023-02-24T08:04:13;10.83;;;6.33;;
35891;SDS011;21993;42.672;23.296;2023-02-24T08:06:44;11.60;;;7.40;;
35891;SDS011;21993;42.672;23.296;2023-02-24T08:09:11;11.47;;;6.70;;
35891;SDS011;21993;42.672;23.296;2023-02-24T08:11:46;11.63;;;7.43;;
35891;SDS011;21993;42.672;23.296;2023-02-24T08:16:48;11.30;;;6.77;;
35891;SDS011;21993;42.672;23.296;2023-02-24T08:19:16;11.77;;;6.97;;
35891;SDS011;21993;42.672;23.296;2023-02-24T08:21:46;14.40;;;7.33;;
35891;SDS011;21993;42.672;23.296;2023-02-24T08:26:52;12.43;;;7.37;;
35891;SDS011;21993;42.672;23.296;2023-02-24T08:32:04;12.77;;;7.37;;
35891;SDS011;21993;42.672;23.296;2023-02-24T08:34:30;16.00;;;7.73;;
35891;SDS011;21993;42.672;23.296;2023-02-24T08:36:56;12.60;;;7.37;;
35891;SDS011;21993;42.672;23.296;2023-02-24T08:39:21;12.20;;;6.77;;
35891;SDS011;21993;42.672;23.296;2023-02-24T08:41:47;12.43;;;6.77;;
35891;SDS011;21993;42.672;23.296;2023-02-24T08:44:16;16.50;;;7.00;;
35891;SDS011;21993;42.672;23.296;2023-02-24T08:46:46;16.20;;;7.70;;
35891;SDS011;21993;42.672;23.296;2023-02-24T08:49:16;14.43;;;7.33;;
35891;SDS011;21993;42.672;23.296;2023-02-24T08:51:46;13.47;;;7.33;;
35891;SDS011;21993;42.672;23.296;2023-02-24T08:54:14;13.20;;;7.30;;
35891;SDS011;21993;42.672;23.296;2023-02-24T08:56:43;15.13;;;8.10;;
35891;SDS011;21993;42.672;23.296;2023-02-24T08:59:14;12.60;;;7.27;;
35891;SDS011;21993;42.672;23.296;2023-02-24T09:02:01;15.80;;;8.43;;
35891;SDS011;21993;42.672;23.296;2023-02-24T09:04:48;13.90;;;7.60;;
35891;SDS011;21993;42.672;23.296;2023-02-24T09:07:16;14.97;;;8.07;;
35891;SDS011;21993;42.672;23.296;2023-02-24T09:09:48;12.83;;;7.80;;
35891;SDS011;21993;42.672;23.296;2023-02-24T09:12:14;11.60;;;7.47;;
35891;SDS011;21993;42.672;23.296;2023-02-24T09:14:48;12.20;;;7.80;;
35891;SDS011;21993;42.672;23.296;2023-02-24T09:17:33;19.77;;;8.60;;
35891;SDS011;21993;42.672;23.296;2023-02-24T09:20:20;12.03;;;7.20;;
35891;SDS011;21993;42.672;23.296;2023-02-24T09:22:49;18.87;;;8.83;;
35891;SDS011;21993;42.672;23.296;2023-02-24T09:25:22;14.37;;;7.40;;
35891;SDS011;21993;42.672;23.296;2023-02-24T09:30:27;13.20;;;7.53;;
35891;SDS011;21993;42.672;23.296;2023-02-24T09:33:05;14.87;;;7.83;;
35891;SDS011;21993;42.672;23.296;2023-02-24T09:36:13;15.17;;;8.17;;
35891;SDS011;21993;42.672;23.296;2023-02-24T09:39:06;12.27;;;7.80;;
35891;SDS011;21993;42.672;23.296;2023-02-24T09:41:33;18.50;;;8.70;;
35891;SDS011;21993;42.672;23.296;2023-02-24T09:44:19;14.10;;;8.13;;
35891;SDS011;21993;42.672;23.296;2023-02-24T09:50:02;17.07;;;8.20;;
35891;SDS011;21993;42.672;23.296;2023-02-24T09:52:38;14.23;;;7.37;;
35891;SDS011;21993;42.672;23.296;2023-02-24T10:01:13;16.00;;;7.87;;
35891;SDS011;21993;42.672;23.296;2023-02-24T10:03:56;14.30;;;8.00;;
35891;SDS011;21993;42.672;23.296;2023-02-24T10:11:49;20.97;;;8.53;;
35891;SDS011;21993;42.672;23.296;2023-02-24T10:14:30;15.13;;;8.20;;
35891;SDS011;21993;42.672;23.296;2023-02-24T10:17:17;13.47;;;7.73;;
35891;SDS011;21993;42.672;23.296;2023-02-24T10:19:48;18.77;;;8.70;;
35891;SDS011;21993;42.672;23.296;2023-02-24T10:22:33;16.63;;;8.40;;
35891;SDS011;21993;42.672;23.296;2023-02-24T10:28:00;15.13;;;8.13;;
35891;SDS011;21993;42.672;23.296;2023-02-24T10:33:34;16.73;;;9.50;;
35891;SDS011;21993;42.672;23.296;2023-02-24T10:36:24;19.40;;;8.80;;
35891;SDS011;21993;42.672;23.296;2023-02-24T10:38:58;16.43;;;8.97;;
35891;SDS011;21993;42.672;23.296;2023-02-24T10:41:43;12.70;;;8.20;;
35891;SDS011;21993;42.672;23.296;2023-02-24T10:44:20;22.13;;;11.43;;
35891;SDS011;21993;42.672;23.296;2023-02-24T10:47:03;12.50;;;8.43;;
35891;SDS011;21993;42.672;23.296;2023-02-24T10:49:45;16.47;;;8.30;;
35891;SDS011;21993;42.672;23.296;2023-02-24T10:52:34;23.07;;;9.40;;
35891;SDS011;21993;42.672;23.296;2023-02-24T10:58:13;15.40;;;8.60;;
35891;SDS011;21993;42.672;23.296;2023-02-24T11:01:30;15.40;;;9.63;;
35891;SDS011;21993;42.672;23.296;2023-02-24T11:04:18;15.17;;;8.73;;
35891;SDS011;21993;42.672;23.296;2023-02-24T11:07:04;14.60;;;8.87;;
35891;SDS011;21993;42.672;23.296;2023-02-24T11:09:33;15.10;;;8.10;;
35891;SDS011;21993;42.672;23.296;2023-02-24T11:12:21;15.37;;;9.50;;
35891;SDS011;21993;42.672;23.296;2023-02-24T11:15:14;18.43;;;8.93;;
35891;SDS011;21993;42.672;23.296;2023-02-24T11:18:02;14.80;;;8.00;;
35891;SDS011;21993;42.672;23.296;2023-02-24T11:20:41;14.60;;;8.57;;
35891;SDS011;21993;42.672;23.296;2023-02-24T11:23:12;14.93;;;8.63;;
35891;SDS011;21993;42.672;23.296;2023-02-24T11:25:42;12.83;;;9.47;;
35891;SDS011;21993;42.672;23.296;2023-02-24T11:28:16;13.30;;;8.60;;
35891;SDS011;21993;42.672;23.296;2023-02-24T11:33:22;19.87;;;8.60;;
35891;SDS011;21993;42.672;23.296;2023-02-24T11:35:54;16.00;;;8.83;;
35891;SDS011;21993;42.672;23.296;2023-02-24T11:41:25;13.70;;;9.30;;
35891;SDS011;21993;42.672;23.296;2023-02-24T11:43:56;18.27;;;9.73;;
35891;SDS011;21993;42.672;23.296;2023-02-24T11:46:33;15.10;;;9.57;;
35891;SDS011;21993;42.672;23.296;2023-02-24T11:48:59;19.20;;;10.07;;
35891;SDS011;21993;42.672;23.296;2023-02-24T11:51:31;16.87;;;9.53;;
35891;SDS011;21993;42.672;23.296;2023-02-24T11:54:05;14.33;;;8.97;;
35891;SDS011;21993;42.672;23.296;2023-02-24T11:56:36;16.13;;;10.30;;
35891;SDS011;21993;42.672;23.296;2023-02-24T12:04:55;14.97;;;9.43;;
35891;SDS011;21993;42.672;23.296;2023-02-24T12:07:28;15.47;;;9.70;;
35891;SDS011;21993;42.672;23.296;2023-02-24T12:17:57;17.70;;;10.33;;
35891;SDS011;21993;42.672;23.296;2023-02-24T12:25:29;18.23;;;10.80;;
35891;SDS011;21993;42.672;23.296;2023-02-24T12:28:13;14.40;;;10.27;;
35891;SDS011;21993;42.672;23.296;2023-02-24T12:30:54;16.73;;;11.10;;
35891;SDS011;21993;42.672;23.296;2023-02-24T12:39:13;19.80;;;10.77;;
35891;SDS011;21993;42.672;23.296;2023-02-24T12:41:56;18.27;;;10.93;;
35891;SDS011;21993;42.672;23.296;2023-02-24T12:47:14;20.73;;;12.00;;
35891;SDS011;21993;42.672;23.296;2023-02-24T12:52:42;20.00;;;11.03;;
35891;SDS011;21993;42.672;23.296;2023-02-24T12:58:21;23.00;;;12.73;;
35891;SDS011;21993;42.672;23.296;2023-02-24T13:00:57;25.33;;;14.20;;
35891;SDS011;21993;42.672;23.296;2023-02-24T13:14:15;24.07;;;15.00;;
35891;SDS011;21993;42.672;23.296;2023-02-24T13:16:44;25.13;;;14.40;;
35891;SDS011;21993;42.672;23.296;2023-02-24T13:24:41;28.07;;;15.17;;
35891;SDS011;21993;42.672;23.296;2023-02-24T13:27:24;29.37;;;15.07;;
35891;SDS011;21993;42.672;23.296;2023-02-24T13:29:56;24.73;;;14.67;;
35891;SDS011;21993;42.672;23.296;2023-02-24T13:32:35;24.77;;;15.13;;
35891;SDS011;21993;42.672;23.296;2023-02-24T13:37:53;32.80;;;18.53;;
35891;SDS011;21993;42.672;23.296;2023-02-24T13:45:21;28.00;;;17.47;;
35891;SDS011;21993;42.672;23.296;2023-02-24T13:53:54;29.13;;;16.83;;
35891;SDS011;21993;42.672;23.296;2023-02-24T14:01:57;29.53;;;16.20;;
35891;SDS011;21993;42.672;23.296;2023-02-24T14:04:35;24.23;;;15.43;;
35891;SDS011;21993;42.672;23.296;2023-02-24T14:07:10;30.53;;;16.83;;
35891;SDS011;21993;42.672;23.296;2023-02-24T14:09:42;25.83;;;15.83;;
35891;SDS011;21993;42.672;23.296;2023-02-24T14:12:26;23.33;;;14.80;;
35891;SDS011;21993;42.672;23.296;2023-02-24T14:14:54;31.70;;;17.10;;
35891;SDS011;21993;42.672;23.296;2023-02-24T14:17:25;29.03;;;17.53;;
35891;SDS011;21993;42.672;23.296;2023-02-24T14:22:48;28.67;;;16.70;;
35891;SDS011;21993;42.672;23.296;2023-02-24T14:25:17;33.90;;;17.70;;
35891;SDS011;21993;42.672;23.296;2023-02-24T14:27:43;37.73;;;21.73;;
35891;SDS011;21993;42.672;23.296;2023-02-24T14:30:21;35.50;;;21.10;;
35891;SDS011;21993;42.672;23.296;2023-02-24T14:32:47;32.67;;;20.40;;
35891;SDS011;21993;42.672;23.296;2023-02-24T14:35:19;34.27;;;20.17;;
35891;SDS011;21993;42.672;23.296;2023-02-24T14:37:51;37.80;;;21.90;;
35891;SDS011;21993;42.672;23.296;2023-02-24T14:40:17;33.77;;;19.77;;
35891;SDS011;21993;42.672;23.296;2023-02-24T14:42:46;28.60;;;19.67;;
35891;SDS011;21993;42.672;23.296;2023-02-24T14:45:16;33.60;;;18.10;;
35891;SDS011;21993;42.672;23.296;2023-02-24T14:47:44;34.07;;;18.53;;
35891;SDS011;21993;42.672;23.296;2023-02-24T14:50:14;31.70;;;18.60;;
35891;SDS011;21993;42.672;23.296;2023-02-24T14:52:58;34.37;;;17.90;;
35891;SDS011;21993;42.672;23.296;2023-02-24T14:55:30;36.23;;;19.90;;
35891;SDS011;21993;42.672;23.296;2023-02-24T15:00:26;31.90;;;18.60;;
35891;SDS011;21993;42.672;23.296;2023-02-24T15:03:03;32.50;;;18.23;;
35891;SDS011;21993;42.672;23.296;2023-02-24T15:05:47;33.10;;;18.47;;
35891;SDS011;21993;42.672;23.296;2023-02-24T15:08:38;32.10;;;18.23;;
35891;SDS011;21993;42.672;23.296;2023-02-24T15:13:52;31.40;;;19.17;;
35891;SDS011;21993;42.672;23.296;2023-02-24T15:16:24;30.37;;;17.60;;
35891;SDS011;21993;42.672;23.296;2023-02-24T15:18:53;36.43;;;19.73;;
35891;SDS011;21993;42.672;23.296;2023-02-24T15:21:31;34.80;;;20.30;;
35891;SDS011;21993;42.672;23.296;2023-02-24T15:26:28;33.50;;;19.60;;
35891;SDS011;21993;42.672;23.296;2023-02-24T15:28:59;37.40;;;19.27;;
35891;SDS011;21993;42.672;23.296;2023-02-24T15:31:26;33.73;;;19.27;;
35891;SDS011;21993;42.672;23.296;2023-02-24T15:33:54;34.17;;;19.23;;
35891;SDS011;21993;42.672;23.296;2023-02-24T15:36:26;36.37;;;18.60;;
35891;SDS011;21993;42.672;23.296;2023-02-24T15:38:57;33.93;;;18.80;;
35891;SDS011;21993;42.672;23.296;2023-02-24T15:41:36;34.80;;;19.03;;
35891;SDS011;21993;42.672;23.296;2023-02-24T15:44:05;33.57;;;18.07;;
35891;SDS011;21993;42.672;23.296;2023-02-24T15:46:32;36.90;;;20.90;;
35891;SDS011;21993;42.672;23.296;2023-02-24T15:48:59;33.63;;;19.20;;
35891;SDS011;21993;42.672;23.296;2023-02-24T15:51:42;38.00;;;21.33;;
35891;SDS011;21993;42.672;23.296;2023-02-24T15:54:17;38.40;;;21.53;;
35891;SDS011;21993;42.672;23.296;2023-02-24T15:56:48;35.30;;;19.13;;
35891;SDS011;21993;42.672;23.296;2023-02-24T15:59:14;37.13;;;20.37;;
35891;SDS011;21993;42.672;23.296;2023-02-24T16:01:41;31.07;;;19.30;;
35891;SDS011;21993;42.672;23.296;2023-02-24T16:04:07;27.70;;;17.43;;
35891;SDS011;21993;42.672;23.296;2023-02-24T16:06:35;36.20;;;19.07;;
35891;SDS011;21993;42.672;23.296;2023-02-24T16:09:06;30.20;;;18.90;;
35891;SDS011;21993;42.672;23.296;2023-02-24T16:11:37;33.87;;;18.50;;
35891;SDS011;21993;42.672;23.296;2023-02-24T16:14:05;31.83;;;17.93;;
35891;SDS011;21993;42.672;23.296;2023-02-24T16:16:38;31.03;;;18.07;;
35891;SDS011;21993;42.672;23.296;2023-02-24T16:19:05;27.33;;;17.30;;
35891;SDS011;21993;42.672;23.296;2023-02-24T16:21:31;30.27;;;18.70;;
35891;SDS011;21993;42.672;23.296;2023-02-24T16:23:56;34.10;;;19.43;;
35891;SDS011;21993;42.672;23.296;2023-02-24T16:26:22;31.03;;;17.20;;
35891;SDS011;21993;42.672;23.296;2023-02-24T16:28:54;29.40;;;17.30;;
35891;SDS011;21993;42.672;23.296;2023-02-24T16:31:21;30.60;;;17.63;;
35891;SDS011;21993;42.672;23.296;2023-02-24T16:33:50;31.87;;;18.83;;
35891;SDS011;21993;42.672;23.296;2023-02-24T16:36:15;32.30;;;17.80;;
35891;SDS011;21993;42.672;23.296;2023-02-24T16:38:41;32.20;;;17.23;;
35891;SDS011;21993;42.672;23.296;2023-02-24T16:41:08;34.17;;;19.40;;
35891;SDS011;21993;42.672;23.296;2023-02-24T16:43:36;36.17;;;19.53;;
35891;SDS011;21993;42.672;23.296;2023-02-24T16:46:02;27.70;;;17.33;;
35891;SDS011;21993;42.672;23.296;2023-02-24T16:48:30;34.90;;;17.83;;
35891;SDS011;21993;42.672;23.296;2023-02-24T16:51:01;24.83;;;16.30;;
35891;SDS011;21993;42.672;23.296;2023-02-24T16:53:27;26.07;;;16.23;;
35891;SDS011;21993;42.672;23.296;2023-02-24T16:55:53;26.97;;;16.03;;
35891;SDS011;21993;42.672;23.296;2023-02-24T16:58:18;29.27;;;17.03;;
35891;SDS011;21993;42.672;23.296;2023-02-24T17:00:44;27.50;;;17.63;;
35891;SDS011;21993;42.672;23.296;2023-02-24T17:03:22;28.43;;;17.13;;
35891;SDS011;21993;42.672;23.296;2023-02-24T17:05:49;28.37;;;17.53;;
35891;SDS011;21993;42.672;23.296;2023-02-24T17:08:15;39.43;;;19.87;;
35891;SDS011;21993;42.672;23.296;2023-02-24T17:10:41;39.53;;;21.83;;